sensor_id;sensor_type;location;lat;lon;timestamp;P1;durP1;ratioP1;P2;durP2;ratioP2
49029;SDS011;43337;52.070;4.508;2023-03-01T00:01:17;19.70;;;9.25;;
49029;SDS011;43337;52.070;4.508;2023-03-01T00:03:47;19.30;;;10.00;;
49029;SDS011;43337;52.070;4.508;2023-03-01T00:06:13;22.52;;;9.60;;
49029;SDS011;43337;52.070;4.508;2023-03-01T00:08:38;18.50;;;10.38;;
49029;SDS011;43337;52.070;4.508;2023-03-01T00:13:29;21.95;;;10.90;;
49029;SDS011;43337;52.070;4.508;2023-03-01T00:15:55;20.02;;;10.73;;
49029;SDS011;43337;52.070;4.508;2023-03-01T00:18:20;20.13;;;10.13;;
49029;SDS011;43337;52.070;4.508;2023-03-01T00:20:54;19.15;;;10.20;;
49029;SDS011;43337;52.070;4.508;2023-03-01T00:23:20;20.90;;;10.65;;
49029;SDS011;43337;52.070;4.508;2023-03-01T00:25:46;20.67;;;10.45;;
49029;SDS011;43337;52.070;4.508;2023-03-01T00:28:12;20.55;;;10.05;;
49029;SDS011;43337;52.070;4.508;2023-03-01T00:30:37;18.25;;;9.85;;
49029;SDS011;43337;52.070;4.508;2023-03-01T00:33:03;21.02;;;10.75;;
49029;SDS011;43337;52.070;4.508;2023-03-01T00:35:28;22.65;;;10.90;;
49029;SDS011;43337;52.070;4.508;2023-03-01T00:37:54;20.55;;;10.20;;
49029;SDS011;43337;52.070;4.508;2023-03-01T00:40:32;17.92;;;10.02;;
49029;SDS011;43337;52.070;4.508;2023-03-01T00:42:59;21.35;;;10.75;;
49029;SDS011;43337;52.070;4.508;2023-03-01T00:45:25;19.60;;;9.20;;
49029;SDS011;43337;52.070;4.508;2023-03-01T00:47:51;24.67;;;11.50;;
49029;SDS011;43337;52.070;4.508;2023-03-01T00:50:17;20.80;;;10.40;;
49029;SDS011;43337;52.070;4.508;2023-03-01T00:52:44;22.75;;;10.50;;
49029;SDS011;43337;52.070;4.508;2023-03-01T00:55:10;19.27;;;10.68;;
49029;SDS011;43337;52.070;4.508;2023-03-01T00:57:36;22.42;;;10.93;;
49029;SDS011;43337;52.070;4.508;2023-03-01T01:00:01;22.48;;;11.70;;
49029;SDS011;43337;52.070;4.508;2023-03-01T01:02:28;24.40;;;11.95;;
49029;SDS011;43337;52.070;4.508;2023-03-01T01:04:53;22.05;;;11.30;;
49029;SDS011;43337;52.070;4.508;2023-03-01T01:07:18;28.25;;;12.30;;
49029;SDS011;43337;52.070;4.508;2023-03-01T01:09:45;25.58;;;11.60;;
49029;SDS011;43337;52.070;4.508;2023-03-01T01:12:11;27.88;;;11.88;;
49029;SDS011;43337;52.070;4.508;2023-03-01T01:14:36;28.48;;;12.07;;
49029;SDS011;43337;52.070;4.508;2023-03-01T01:17:02;33.65;;;11.70;;
49029;SDS011;43337;52.070;4.508;2023-03-01T01:19:28;25.83;;;11.85;;
49029;SDS011;43337;52.070;4.508;2023-03-01T01:21:53;30.38;;;12.73;;
49029;SDS011;43337;52.070;4.508;2023-03-01T01:24:19;28.45;;;12.63;;
49029;SDS011;43337;52.070;4.508;2023-03-01T01:26:44;27.85;;;12.25;;
49029;SDS011;43337;52.070;4.508;2023-03-01T01:29:10;31.08;;;13.20;;
49029;SDS011;43337;52.070;4.508;2023-03-01T01:31:37;29.30;;;12.20;;
49029;SDS011;43337;52.070;4.508;2023-03-01T01:34:05;24.48;;;11.70;;
49029;SDS011;43337;52.070;4.508;2023-03-01T01:36:32;28.55;;;12.05;;
49029;SDS011;43337;52.070;4.508;2023-03-01T01:38:58;29.52;;;13.43;;
49029;SDS011;43337;52.070;4.508;2023-03-01T01:41:25;27.42;;;12.43;;
49029;SDS011;43337;52.070;4.508;2023-03-01T01:49:30;29.85;;;13.50;;
49029;SDS011;43337;52.070;4.508;2023-03-01T01:54:55;32.90;;;13.65;;
49029;SDS011;43337;52.070;4.508;2023-03-01T01:57:39;31.00;;;13.30;;
49029;SDS011;43337;52.070;4.508;2023-03-01T02:00:16;35.72;;;14.88;;
49029;SDS011;43337;52.070;4.508;2023-03-01T02:02:44;31.25;;;13.40;;
49029;SDS011;43337;52.070;4.508;2023-03-01T02:07:47;35.17;;;13.80;;
49029;SDS011;43337;52.070;4.508;2023-03-01T02:10:14;32.45;;;13.63;;
49029;SDS011;43337;52.070;4.508;2023-03-01T02:12:40;34.13;;;14.10;;
49029;SDS011;43337;52.070;4.508;2023-03-01T02:15:06;37.88;;;15.15;;
49029;SDS011;43337;52.070;4.508;2023-03-01T02:17:32;33.95;;;15.50;;
49029;SDS011;43337;52.070;4.508;2023-03-01T02:22:34;31.27;;;14.68;;
49029;SDS011;43337;52.070;4.508;2023-03-01T02:30:29;39.20;;;16.25;;
49029;SDS011;43337;52.070;4.508;2023-03-01T02:32:56;40.17;;;16.70;;
49029;SDS011;43337;52.070;4.508;2023-03-01T02:35:27;39.20;;;16.92;;
49029;SDS011;43337;52.070;4.508;2023-03-01T02:37:55;37.60;;;16.42;;
49029;SDS011;43337;52.070;4.508;2023-03-01T02:40:22;39.00;;;16.85;;
49029;SDS011;43337;52.070;4.508;2023-03-01T02:42:52;39.40;;;16.63;;
49029;SDS011;43337;52.070;4.508;2023-03-01T02:45:21;43.97;;;17.88;;
49029;SDS011;43337;52.070;4.508;2023-03-01T02:47:46;41.47;;;17.00;;
49029;SDS011;43337;52.070;4.508;2023-03-01T02:50:19;40.13;;;17.20;;
49029;SDS011;43337;52.070;4.508;2023-03-01T02:53:00;46.17;;;17.50;;
49029;SDS011;43337;52.070;4.508;2023-03-01T02:55:33;37.25;;;15.68;;
49029;SDS011;43337;52.070;4.508;2023-03-01T02:58:00;41.92;;;17.65;;
49029;SDS011;43337;52.070;4.508;2023-03-01T03:00:31;47.17;;;17.85;;
49029;SDS011;43337;52.070;4.508;2023-03-01T03:03:04;43.58;;;16.88;;
49029;SDS011;43337;52.070;4.508;2023-03-01T03:05:30;46.95;;;17.33;;
49029;SDS011;43337;52.070;4.508;2023-03-01T03:07:56;44.40;;;18.20;;
49029;SDS011;43337;52.070;4.508;2023-03-01T03:10:27;56.45;;;17.80;;
49029;SDS011;43337;52.070;4.508;2023-03-01T03:12:58;41.73;;;18.37;;
49029;SDS011;43337;52.070;4.508;2023-03-01T03:15:26;47.58;;;18.05;;
49029;SDS011;43337;52.070;4.508;2023-03-01T03:17:53;50.20;;;17.90;;
49029;SDS011;43337;52.070;4.508;2023-03-01T03:20:19;54.55;;;17.92;;
49029;SDS011;43337;52.070;4.508;2023-03-01T03:22:49;54.67;;;18.90;;
49029;SDS011;43337;52.070;4.508;2023-03-01T03:25:16;54.78;;;19.88;;
49029;SDS011;43337;52.070;4.508;2023-03-01T03:27:42;133.15;;;20.90;;
49029;SDS011;43337;52.070;4.508;2023-03-01T03:30:10;137.57;;;21.00;;
49029;SDS011;43337;52.070;4.508;2023-03-01T03:32:39;97.53;;;20.50;;
49029;SDS011;43337;52.070;4.508;2023-03-01T03:35:06;232.88;;;30.10;;
49029;SDS011;43337;52.070;4.508;2023-03-01T03:37:40;397.73;;;29.73;;
49029;SDS011;43337;52.070;4.508;2023-03-01T03:40:25;289.00;;;26.08;;
49029;SDS011;43337;52.070;4.508;2023-03-01T03:42:51;355.30;;;30.00;;
49029;SDS011;43337;52.070;4.508;2023-03-01T03:45:17;185.05;;;22.60;;
49029;SDS011;43337;52.070;4.508;2023-03-01T03:47:43;102.07;;;18.30;;
49029;SDS011;43337;52.070;4.508;2023-03-01T03:50:12;308.73;;;26.85;;
49029;SDS011;43337;52.070;4.508;2023-03-01T03:52:39;100.43;;;18.90;;
49029;SDS011;43337;52.070;4.508;2023-03-01T03:55:05;285.33;;;26.05;;
49029;SDS011;43337;52.070;4.508;2023-03-01T03:57:35;349.65;;;26.98;;
49029;SDS011;43337;52.070;4.508;2023-03-01T04:00:00;246.93;;;24.83;;
49029;SDS011;43337;52.070;4.508;2023-03-01T04:02:28;272.13;;;24.30;;
49029;SDS011;43337;52.070;4.508;2023-03-01T04:04:54;293.30;;;25.25;;
49029;SDS011;43337;52.070;4.508;2023-03-01T04:07:19;531.35;;;33.15;;
49029;SDS011;43337;52.070;4.508;2023-03-01T04:09:44;151.70;;;21.35;;
49029;SDS011;43337;52.070;4.508;2023-03-01T04:12:10;161.48;;;20.13;;
49029;SDS011;43337;52.070;4.508;2023-03-01T04:14:35;193.85;;;21.00;;
49029;SDS011;43337;52.070;4.508;2023-03-01T04:17:01;109.10;;;17.27;;
49029;SDS011;43337;52.070;4.508;2023-03-01T04:19:29;171.05;;;20.90;;
49029;SDS011;43337;52.070;4.508;2023-03-01T04:22:04;132.40;;;18.95;;
49029;SDS011;43337;52.070;4.508;2023-03-01T04:24:34;102.50;;;17.75;;
49029;SDS011;43337;52.070;4.508;2023-03-01T04:27:00;116.97;;;18.10;;
49029;SDS011;43337;52.070;4.508;2023-03-01T04:29:25;79.18;;;15.88;;
49029;SDS011;43337;52.070;4.508;2023-03-01T04:31:50;70.22;;;15.45;;
49029;SDS011;43337;52.070;4.508;2023-03-01T04:34:16;111.25;;;18.17;;
49029;SDS011;43337;52.070;4.508;2023-03-01T04:36:41;109.47;;;17.23;;
49029;SDS011;43337;52.070;4.508;2023-03-01T04:39:07;146.50;;;17.52;;
49029;SDS011;43337;52.070;4.508;2023-03-01T04:41:37;130.68;;;19.00;;
49029;SDS011;43337;52.070;4.508;2023-03-01T04:44:04;202.60;;;19.58;;
49029;SDS011;43337;52.070;4.508;2023-03-01T04:46:30;134.25;;;18.08;;
49029;SDS011;43337;52.070;4.508;2023-03-01T04:48:55;242.05;;;21.70;;
49029;SDS011;43337;52.070;4.508;2023-03-01T04:51:21;137.60;;;18.13;;
49029;SDS011;43337;52.070;4.508;2023-03-01T04:53:46;103.50;;;16.90;;
49029;SDS011;43337;52.070;4.508;2023-03-01T04:56:12;124.25;;;18.73;;
49029;SDS011;43337;52.070;4.508;2023-03-01T04:58:43;123.85;;;18.25;;
49029;SDS011;43337;52.070;4.508;2023-03-01T05:01:12;87.85;;;16.35;;
49029;SDS011;43337;52.070;4.508;2023-03-01T05:03:41;157.23;;;17.98;;
49029;SDS011;43337;52.070;4.508;2023-03-01T05:06:08;106.53;;;17.10;;
49029;SDS011;43337;52.070;4.508;2023-03-01T05:08:33;115.75;;;17.70;;
49029;SDS011;43337;52.070;4.508;2023-03-01T05:11:02;201.93;;;22.20;;
49029;SDS011;43337;52.070;4.508;2023-03-01T05:13:28;121.90;;;17.25;;
49029;SDS011;43337;52.070;4.508;2023-03-01T05:15:54;78.60;;;15.82;;
49029;SDS011;43337;52.070;4.508;2023-03-01T05:18:22;127.35;;;16.85;;
49029;SDS011;43337;52.070;4.508;2023-03-01T05:21:13;109.25;;;16.00;;
49029;SDS011;43337;52.070;4.508;2023-03-01T05:23:40;98.90;;;17.20;;
49029;SDS011;43337;52.070;4.508;2023-03-01T05:26:06;76.60;;;14.88;;
49029;SDS011;43337;52.070;4.508;2023-03-01T05:28:33;131.20;;;15.77;;
49029;SDS011;43337;52.070;4.508;2023-03-01T05:30:58;128.60;;;15.98;;
49029;SDS011;43337;52.070;4.508;2023-03-01T05:33:24;89.13;;;14.45;;
49029;SDS011;43337;52.070;4.508;2023-03-01T05:35:51;80.55;;;14.73;;
49029;SDS011;43337;52.070;4.508;2023-03-01T05:38:18;53.65;;;14.38;;
49029;SDS011;43337;52.070;4.508;2023-03-01T05:40:45;47.58;;;14.05;;
49029;SDS011;43337;52.070;4.508;2023-03-01T05:43:12;46.47;;;13.85;;
49029;SDS011;43337;52.070;4.508;2023-03-01T05:45:39;52.65;;;14.43;;
49029;SDS011;43337;52.070;4.508;2023-03-01T05:48:05;37.90;;;13.95;;
49029;SDS011;43337;52.070;4.508;2023-03-01T05:50:33;73.82;;;14.10;;
49029;SDS011;43337;52.070;4.508;2023-03-01T05:53:04;113.50;;;15.73;;
49029;SDS011;43337;52.070;4.508;2023-03-01T05:55:32;123.05;;;15.98;;
49029;SDS011;43337;52.070;4.508;2023-03-01T05:57:59;176.13;;;18.17;;
49029;SDS011;43337;52.070;4.508;2023-03-01T06:00:29;108.57;;;15.77;;
49029;SDS011;43337;52.070;4.508;2023-03-01T06:02:56;207.00;;;18.45;;
49029;SDS011;43337;52.070;4.508;2023-03-01T06:05:22;114.15;;;14.98;;
49029;SDS011;43337;52.070;4.508;2023-03-01T06:07:48;128.85;;;16.10;;
49029;SDS011;43337;52.070;4.508;2023-03-01T06:10:15;192.32;;;20.02;;
49029;SDS011;43337;52.070;4.508;2023-03-01T06:12:41;214.15;;;20.85;;
49029;SDS011;43337;52.070;4.508;2023-03-01T06:15:08;77.65;;;14.48;;
49029;SDS011;43337;52.070;4.508;2023-03-01T06:17:35;186.07;;;19.65;;
49029;SDS011;43337;52.070;4.508;2023-03-01T06:20:05;197.77;;;19.45;;
49029;SDS011;43337;52.070;4.508;2023-03-01T06:22:37;197.75;;;20.70;;
49029;SDS011;43337;52.070;4.508;2023-03-01T06:25:03;68.53;;;14.43;;
49029;SDS011;43337;52.070;4.508;2023-03-01T06:27:29;96.78;;;16.45;;
49029;SDS011;43337;52.070;4.508;2023-03-01T06:29:55;69.75;;;14.10;;
49029;SDS011;43337;52.070;4.508;2023-03-01T06:32:20;52.22;;;13.50;;
49029;SDS011;43337;52.070;4.508;2023-03-01T06:34:46;40.40;;;13.52;;
49029;SDS011;43337;52.070;4.508;2023-03-01T06:37:11;43.05;;;14.75;;
49029;SDS011;43337;52.070;4.508;2023-03-01T06:39:37;39.65;;;14.05;;
49029;SDS011;43337;52.070;4.508;2023-03-01T06:42:02;39.95;;;15.68;;
49029;SDS011;43337;52.070;4.508;2023-03-01T06:44:28;85.63;;;31.70;;
49029;SDS011;43337;52.070;4.508;2023-03-01T06:46:53;59.67;;;22.52;;
49029;SDS011;43337;52.070;4.508;2023-03-01T06:49:19;45.70;;;17.15;;
49029;SDS011;43337;52.070;4.508;2023-03-01T06:51:44;38.28;;;14.35;;
49029;SDS011;43337;52.070;4.508;2023-03-01T06:54:11;35.05;;;15.80;;
49029;SDS011;43337;52.070;4.508;2023-03-01T06:56:37;30.98;;;15.07;;
49029;SDS011;43337;52.070;4.508;2023-03-01T06:59:03;33.40;;;14.48;;
49029;SDS011;43337;52.070;4.508;2023-03-01T07:01:29;41.53;;;17.13;;
49029;SDS011;43337;52.070;4.508;2023-03-01T07:03:55;38.40;;;16.48;;
49029;SDS011;43337;52.070;4.508;2023-03-01T07:06:20;34.13;;;15.63;;
49029;SDS011;43337;52.070;4.508;2023-03-01T07:08:46;43.72;;;17.92;;
49029;SDS011;43337;52.070;4.508;2023-03-01T07:11:12;34.35;;;15.38;;
49029;SDS011;43337;52.070;4.508;2023-03-01T07:13:38;37.42;;;15.48;;
49029;SDS011;43337;52.070;4.508;2023-03-01T07:16:03;34.08;;;15.27;;
49029;SDS011;43337;52.070;4.508;2023-03-01T07:18:29;41.03;;;16.70;;
49029;SDS011;43337;52.070;4.508;2023-03-01T07:20:54;38.10;;;17.40;;
49029;SDS011;43337;52.070;4.508;2023-03-01T07:23:20;41.17;;;17.52;;
49029;SDS011;43337;52.070;4.508;2023-03-01T07:25:51;44.15;;;19.95;;
49029;SDS011;43337;52.070;4.508;2023-03-01T07:28:19;41.10;;;17.15;;
49029;SDS011;43337;52.070;4.508;2023-03-01T07:30:47;39.70;;;17.45;;
49029;SDS011;43337;52.070;4.508;2023-03-01T07:33:12;42.75;;;18.65;;
49029;SDS011;43337;52.070;4.508;2023-03-01T07:35:37;46.00;;;18.65;;
49029;SDS011;43337;52.070;4.508;2023-03-01T07:38:03;41.35;;;18.20;;
49029;SDS011;43337;52.070;4.508;2023-03-01T07:40:28;50.05;;;20.02;;
49029;SDS011;43337;52.070;4.508;2023-03-01T07:42:57;46.20;;;19.48;;
49029;SDS011;43337;52.070;4.508;2023-03-01T07:45:24;43.97;;;18.40;;
49029;SDS011;43337;52.070;4.508;2023-03-01T07:47:50;40.13;;;18.73;;
49029;SDS011;43337;52.070;4.508;2023-03-01T07:50:17;40.30;;;18.02;;
49029;SDS011;43337;52.070;4.508;2023-03-01T07:52:44;43.85;;;18.20;;
49029;SDS011;43337;52.070;4.508;2023-03-01T07:55:10;44.33;;;18.92;;
49029;SDS011;43337;52.070;4.508;2023-03-01T07:57:36;40.38;;;18.30;;
49029;SDS011;43337;52.070;4.508;2023-03-01T08:00:02;45.35;;;19.55;;
49029;SDS011;43337;52.070;4.508;2023-03-01T08:02:29;39.85;;;18.10;;
49029;SDS011;43337;52.070;4.508;2023-03-01T08:04:54;44.67;;;19.92;;
49029;SDS011;43337;52.070;4.508;2023-03-01T08:07:19;44.22;;;19.30;;
49029;SDS011;43337;52.070;4.508;2023-03-01T08:09:45;47.67;;;20.20;;
49029;SDS011;43337;52.070;4.508;2023-03-01T08:12:10;47.55;;;18.40;;
49029;SDS011;43337;52.070;4.508;2023-03-01T08:14:35;49.45;;;20.77;;
49029;SDS011;43337;52.070;4.508;2023-03-01T08:17:01;45.58;;;20.02;;
49029;SDS011;43337;52.070;4.508;2023-03-01T08:19:28;47.22;;;20.52;;
49029;SDS011;43337;52.070;4.508;2023-03-01T08:21:53;47.75;;;21.77;;
49029;SDS011;43337;52.070;4.508;2023-03-01T08:24:18;49.47;;;21.17;;
49029;SDS011;43337;52.070;4.508;2023-03-01T08:26:44;48.03;;;22.20;;
49029;SDS011;43337;52.070;4.508;2023-03-01T08:29:09;47.28;;;21.15;;
49029;SDS011;43337;52.070;4.508;2023-03-01T08:31:36;45.65;;;20.40;;
49029;SDS011;43337;52.070;4.508;2023-03-01T08:34:08;43.67;;;20.73;;
49029;SDS011;43337;52.070;4.508;2023-03-01T08:36:37;43.03;;;19.65;;
49029;SDS011;43337;52.070;4.508;2023-03-01T08:39:07;37.25;;;17.85;;
49029;SDS011;43337;52.070;4.508;2023-03-01T08:41:34;36.70;;;16.08;;
49029;SDS011;43337;52.070;4.508;2023-03-01T08:44:00;34.95;;;15.63;;
49029;SDS011;43337;52.070;4.508;2023-03-01T08:46:29;29.85;;;14.43;;
49029;SDS011;43337;52.070;4.508;2023-03-01T08:48:56;34.25;;;15.18;;
49029;SDS011;43337;52.070;4.508;2023-03-01T08:51:22;30.08;;;13.85;;
49029;SDS011;43337;52.070;4.508;2023-03-01T08:53:48;30.17;;;15.15;;
49029;SDS011;43337;52.070;4.508;2023-03-01T08:56:14;27.58;;;14.32;;
49029;SDS011;43337;52.070;4.508;2023-03-01T08:58:43;27.98;;;14.10;;
49029;SDS011;43337;52.070;4.508;2023-03-01T09:01:12;27.48;;;14.15;;
49029;SDS011;43337;52.070;4.508;2023-03-01T09:03:40;26.77;;;14.60;;
49029;SDS011;43337;52.070;4.508;2023-03-01T09:06:06;28.27;;;14.55;;
49029;SDS011;43337;52.070;4.508;2023-03-01T09:08:36;29.38;;;13.95;;
49029;SDS011;43337;52.070;4.508;2023-03-01T09:11:03;27.42;;;13.90;;
49029;SDS011;43337;52.070;4.508;2023-03-01T09:13:29;27.08;;;13.55;;
49029;SDS011;43337;52.070;4.508;2023-03-01T09:15:56;29.88;;;13.52;;
49029;SDS011;43337;52.070;4.508;2023-03-01T09:18:22;30.60;;;14.02;;
49029;SDS011;43337;52.070;4.508;2023-03-01T09:20:48;29.35;;;12.82;;
49029;SDS011;43337;52.070;4.508;2023-03-01T09:23:13;26.58;;;12.68;;
49029;SDS011;43337;52.070;4.508;2023-03-01T09:25:38;23.13;;;11.90;;
49029;SDS011;43337;52.070;4.508;2023-03-01T09:28:04;23.30;;;11.85;;
49029;SDS011;43337;52.070;4.508;2023-03-01T09:30:29;24.02;;;12.13;;
49029;SDS011;43337;52.070;4.508;2023-03-01T09:32:56;24.08;;;12.15;;
49029;SDS011;43337;52.070;4.508;2023-03-01T09:35:21;24.55;;;11.43;;
49029;SDS011;43337;52.070;4.508;2023-03-01T09:37:48;23.25;;;11.40;;
49029;SDS011;43337;52.070;4.508;2023-03-01T09:40:19;18.00;;;9.25;;
49029;SDS011;43337;52.070;4.508;2023-03-01T09:42:48;16.63;;;8.80;;
49029;SDS011;43337;52.070;4.508;2023-03-01T09:45:26;18.83;;;8.80;;
49029;SDS011;43337;52.070;4.508;2023-03-01T09:47:58;21.73;;;9.50;;
49029;SDS011;43337;52.070;4.508;2023-03-01T09:50:28;17.55;;;8.60;;
49029;SDS011;43337;52.070;4.508;2023-03-01T09:53:01;23.90;;;9.38;;
49029;SDS011;43337;52.070;4.508;2023-03-01T09:55:29;21.23;;;9.20;;
49029;SDS011;43337;52.070;4.508;2023-03-01T10:09:40;14.05;;;6.63;;
49029;SDS011;43337;52.070;4.508;2023-03-01T10:12:22;11.88;;;5.60;;
49029;SDS011;43337;52.070;4.508;2023-03-01T10:17:41;10.68;;;5.32;;
49029;SDS011;43337;52.070;4.508;2023-03-01T10:20:16;10.18;;;5.00;;
49029;SDS011;43337;52.070;4.508;2023-03-01T10:22:44;9.80;;;5.38;;
49029;SDS011;43337;52.070;4.508;2023-03-01T10:25:15;10.05;;;5.50;;
49029;SDS011;43337;52.070;4.508;2023-03-01T10:27:52;9.80;;;4.85;;
49029;SDS011;43337;52.070;4.508;2023-03-01T10:33:09;11.38;;;5.70;;
49029;SDS011;43337;52.070;4.508;2023-03-01T10:35:42;9.82;;;4.75;;
49029;SDS011;43337;52.070;4.508;2023-03-01T10:38:09;8.82;;;4.30;;
49029;SDS011;43337;52.070;4.508;2023-03-01T10:40:37;12.60;;;5.40;;
49029;SDS011;43337;52.070;4.508;2023-03-01T10:43:26;11.85;;;6.30;;
49029;SDS011;43337;52.070;4.508;2023-03-01T10:45:57;10.68;;;5.03;;
49029;SDS011;43337;52.070;4.508;2023-03-01T10:48:23;11.10;;;5.35;;
49029;SDS011;43337;52.070;4.508;2023-03-01T10:55:58;13.48;;;5.15;;
49029;SDS011;43337;52.070;4.508;2023-03-01T10:58:26;10.55;;;4.97;;
49029;SDS011;43337;52.070;4.508;2023-03-01T11:00:54;10.77;;;4.80;;
49029;SDS011;43337;52.070;4.508;2023-03-01T11:03:29;9.45;;;4.80;;
49029;SDS011;43337;52.070;4.508;2023-03-01T11:06:00;10.35;;;5.28;;
49029;SDS011;43337;52.070;4.508;2023-03-01T11:08:49;10.85;;;4.88;;
49029;SDS011;43337;52.070;4.508;2023-03-01T11:11:17;11.25;;;5.38;;
49029;SDS011;43337;52.070;4.508;2023-03-01T11:16:22;11.43;;;6.00;;
49029;SDS011;43337;52.070;4.508;2023-03-01T11:21:43;14.52;;;6.32;;
49029;SDS011;43337;52.070;4.508;2023-03-01T11:24:22;10.82;;;5.55;;
49029;SDS011;43337;52.070;4.508;2023-03-01T11:26:54;10.98;;;5.13;;
49029;SDS011;43337;52.070;4.508;2023-03-01T11:29:29;11.20;;;4.65;;
49029;SDS011;43337;52.070;4.508;2023-03-01T11:32:02;12.70;;;6.35;;
49029;SDS011;43337;52.070;4.508;2023-03-01T11:34:54;11.40;;;6.03;;
49029;SDS011;43337;52.070;4.508;2023-03-01T11:37:28;9.40;;;4.75;;
49029;SDS011;43337;52.070;4.508;2023-03-01T11:40:02;12.50;;;6.30;;
49029;SDS011;43337;52.070;4.508;2023-03-01T11:45:11;17.70;;;9.18;;
49029;SDS011;43337;52.070;4.508;2023-03-01T11:50:26;16.75;;;7.50;;
49029;SDS011;43337;52.070;4.508;2023-03-01T11:58:19;19.27;;;8.63;;
49029;SDS011;43337;52.070;4.508;2023-03-01T12:12:02;20.33;;;8.45;;
49029;SDS011;43337;52.070;4.508;2023-03-01T12:14:42;15.63;;;7.97;;
49029;SDS011;43337;52.070;4.508;2023-03-01T12:20:50;20.42;;;9.02;;
49029;SDS011;43337;52.070;4.508;2023-03-01T12:44:53;16.98;;;8.05;;
49029;SDS011;43337;52.070;4.508;2023-03-01T12:49:57;16.95;;;8.35;;
49029;SDS011;43337;52.070;4.508;2023-03-01T12:52:37;16.92;;;8.30;;
49029;SDS011;43337;52.070;4.508;2023-03-01T12:55:29;18.65;;;9.13;;
49029;SDS011;43337;52.070;4.508;2023-03-01T13:00:30;17.23;;;8.70;;
49029;SDS011;43337;52.070;4.508;2023-03-01T13:06:08;18.88;;;8.80;;
49029;SDS011;43337;52.070;4.508;2023-03-01T13:08:45;19.35;;;8.68;;
49029;SDS011;43337;52.070;4.508;2023-03-01T13:11:25;18.58;;;8.57;;
49029;SDS011;43337;52.070;4.508;2023-03-01T13:13:51;14.95;;;6.50;;
49029;SDS011;43337;52.070;4.508;2023-03-01T13:19:08;10.10;;;5.32;;
49029;SDS011;43337;52.070;4.508;2023-03-01T13:21:39;10.55;;;5.10;;
49029;SDS011;43337;52.070;4.508;2023-03-01T13:24:22;13.32;;;5.00;;
49029;SDS011;43337;52.070;4.508;2023-03-01T13:32:32;9.18;;;4.82;;
49029;SDS011;43337;52.070;4.508;2023-03-01T13:37:40;9.32;;;4.82;;
49029;SDS011;43337;52.070;4.508;2023-03-01T13:42:42;9.15;;;4.43;;
49029;SDS011;43337;52.070;4.508;2023-03-01T13:45:18;13.35;;;4.75;;
49029;SDS011;43337;52.070;4.508;2023-03-01T13:47:58;9.07;;;4.63;;
49029;SDS011;43337;52.070;4.508;2023-03-01T13:50:28;8.05;;;4.20;;
49029;SDS011;43337;52.070;4.508;2023-03-01T13:52:59;8.10;;;4.30;;
49029;SDS011;43337;52.070;4.508;2023-03-01T13:58:53;9.30;;;4.55;;
49029;SDS011;43337;52.070;4.508;2023-03-01T14:01:23;8.63;;;4.13;;
49029;SDS011;43337;52.070;4.508;2023-03-01T14:03:51;10.75;;;4.57;;
49029;SDS011;43337;52.070;4.508;2023-03-01T14:06:21;11.25;;;4.63;;
49029;SDS011;43337;52.070;4.508;2023-03-01T14:08:50;10.32;;;4.55;;
49029;SDS011;43337;52.070;4.508;2023-03-01T14:19:54;7.10;;;3.92;;
49029;SDS011;43337;52.070;4.508;2023-03-01T14:22:41;8.00;;;4.13;;
49029;SDS011;43337;52.070;4.508;2023-03-01T14:28:14;7.90;;;4.05;;
49029;SDS011;43337;52.070;4.508;2023-03-01T14:30:45;9.07;;;4.93;;
49029;SDS011;43337;52.070;4.508;2023-03-01T14:33:25;8.15;;;4.60;;
49029;SDS011;43337;52.070;4.508;2023-03-01T14:40:56;10.50;;;4.60;;
49029;SDS011;43337;52.070;4.508;2023-03-01T14:43:24;11.45;;;4.88;;
49029;SDS011;43337;52.070;4.508;2023-03-01T14:45:53;9.85;;;5.00;;
49029;SDS011;43337;52.070;4.508;2023-03-01T14:48:19;8.20;;;4.15;;
49029;SDS011;43337;52.070;4.508;2023-03-01T14:50:45;8.15;;;4.47;;
49029;SDS011;43337;52.070;4.508;2023-03-01T14:53:18;8.43;;;4.18;;
49029;SDS011;43337;52.070;4.508;2023-03-01T14:55:47;9.95;;;4.32;;
49029;SDS011;43337;52.070;4.508;2023-03-01T14:58:18;10.88;;;4.15;;
49029;SDS011;43337;52.070;4.508;2023-03-01T15:00:53;7.45;;;4.05;;
49029;SDS011;43337;52.070;4.508;2023-03-01T15:03:24;8.20;;;4.13;;
49029;SDS011;43337;52.070;4.508;2023-03-01T15:05:50;9.32;;;3.85;;
49029;SDS011;43337;52.070;4.508;2023-03-01T15:08:19;7.30;;;3.92;;
49029;SDS011;43337;52.070;4.508;2023-03-01T15:11:01;9.63;;;4.28;;
49029;SDS011;43337;52.070;4.508;2023-03-01T15:13:42;8.02;;;3.60;;
49029;SDS011;43337;52.070;4.508;2023-03-01T15:16:11;9.80;;;4.38;;
49029;SDS011;43337;52.070;4.508;2023-03-01T15:18:45;10.05;;;3.72;;
49029;SDS011;43337;52.070;4.508;2023-03-01T15:21:16;10.00;;;4.22;;
49029;SDS011;43337;52.070;4.508;2023-03-01T15:23:48;8.18;;;4.28;;
49029;SDS011;43337;52.070;4.508;2023-03-01T15:26:49;8.45;;;3.97;;
49029;SDS011;43337;52.070;4.508;2023-03-01T15:29:18;7.22;;;3.72;;
49029;SDS011;43337;52.070;4.508;2023-03-01T15:37:02;7.47;;;3.50;;
49029;SDS011;43337;52.070;4.508;2023-03-01T15:42:08;6.35;;;3.03;;
49029;SDS011;43337;52.070;4.508;2023-03-01T15:45:10;8.10;;;3.70;;
49029;SDS011;43337;52.070;4.508;2023-03-01T15:47:52;10.63;;;3.85;;
49029;SDS011;43337;52.070;4.508;2023-03-01T15:52:52;8.35;;;4.28;;
49029;SDS011;43337;52.070;4.508;2023-03-01T15:55:20;9.40;;;4.38;;
49029;SDS011;43337;52.070;4.508;2023-03-01T15:57:48;5.82;;;3.25;;
49029;SDS011;43337;52.070;4.508;2023-03-01T16:00:15;9.00;;;4.35;;
49029;SDS011;43337;52.070;4.508;2023-03-01T16:02:42;10.52;;;4.57;;
49029;SDS011;43337;52.070;4.508;2023-03-01T16:05:20;7.05;;;3.75;;
49029;SDS011;43337;52.070;4.508;2023-03-01T16:07:48;9.45;;;4.22;;
49029;SDS011;43337;52.070;4.508;2023-03-01T16:10:14;7.70;;;3.55;;
49029;SDS011;43337;52.070;4.508;2023-03-01T16:12:40;9.98;;;4.57;;
49029;SDS011;43337;52.070;4.508;2023-03-01T16:17:52;6.57;;;3.60;;
49029;SDS011;43337;52.070;4.508;2023-03-01T16:20:18;6.82;;;2.85;;
49029;SDS011;43337;52.070;4.508;2023-03-01T16:22:44;9.07;;;4.38;;
49029;SDS011;43337;52.070;4.508;2023-03-01T16:25:11;11.77;;;4.57;;
49029;SDS011;43337;52.070;4.508;2023-03-01T16:27:37;9.75;;;4.25;;
49029;SDS011;43337;52.070;4.508;2023-03-01T16:30:04;7.40;;;3.80;;
49029;SDS011;43337;52.070;4.508;2023-03-01T16:32:33;10.60;;;4.55;;
49029;SDS011;43337;52.070;4.508;2023-03-01T16:35:03;8.60;;;4.25;;
49029;SDS011;43337;52.070;4.508;2023-03-01T16:37:30;9.55;;;4.60;;
49029;SDS011;43337;52.070;4.508;2023-03-01T16:39:57;10.43;;;4.70;;
49029;SDS011;43337;52.070;4.508;2023-03-01T16:42:22;9.90;;;5.40;;
49029;SDS011;43337;52.070;4.508;2023-03-01T16:44:48;12.40;;;5.15;;
49029;SDS011;43337;52.070;4.508;2023-03-01T16:47:13;13.43;;;4.57;;
49029;SDS011;43337;52.070;4.508;2023-03-01T16:49:38;8.70;;;4.03;;
49029;SDS011;43337;52.070;4.508;2023-03-01T16:52:04;10.20;;;4.65;;
49029;SDS011;43337;52.070;4.508;2023-03-01T16:54:29;7.70;;;3.88;;
49029;SDS011;43337;52.070;4.508;2023-03-01T16:56:54;10.23;;;4.57;;
49029;SDS011;43337;52.070;4.508;2023-03-01T16:59:20;8.57;;;3.75;;
49029;SDS011;43337;52.070;4.508;2023-03-01T17:01:45;8.52;;;3.92;;
49029;SDS011;43337;52.070;4.508;2023-03-01T17:04:11;8.85;;;4.38;;
49029;SDS011;43337;52.070;4.508;2023-03-01T17:06:38;10.75;;;4.20;;